Aviation Digital Data Service (ADDS)

Output produced by METARs form (0848 UTC 03 May 2015)
found at http://www.aviationweather.gov/adds/metars/
 
KMIV 030754Z AUTO 00000KT 10SM BKN100 10/08 A3003 RMK AO2 SLP168 T01000078
KMIV 030533Z 0306/0406 00000KT P6SM SKC 
     FM031500 28005KT P6SM FEW060 
     FM032100 15010KT P6SM SKC 
     FM040000 00000KT P6SM SCT250